Weather History for Mount Pleasant, IA

Change the Weather History Date:

Sunday, October 13, 2013

  Actual Average Record
Temperature  
Mean Temperature 53 °F -  
Max Temperature 68 °F 65 °F 88 °F (1962)
Min Temperature 38 °F 43 °F 26 °F (1979)
Degree Days  
Heating Degree Days 12    
Growing Degree Days 3 (Base 50)    
Moisture  
Dew Point 29 °F    
Average Humidity 46    
Maximum Humidity 90    
Minimum Humidity 16    
Precipitation  
Precipitation 0.00 in - - ()
Sea Level Pressure  
Sea Level Pressure 30.36 in    
Wind  
Wind Speed 3 mph (North)    
Max Wind Speed 8 mph    
Max Gust Speed -    
Visibility 8 miles    
Events      
Averages and records for this station are not official NWS values.
T = Trace of Precipitation, MM = Missing Value Source: NWS Daily Summary

Daily Weather History Graph

Daily Weather History Graph

Search for Another Location

Airport:

Trip Planner

Search our weather history database for the weather conditions in past years. The results will help you decide how hot, cold, wet, or windy it might be!

Date:

Astronomy

Oct. 13, 2013 Rise Set
Actual Time 7:15 AM CDT 6:28 PM CDT
Civil Twilight 6:47 AM CDT 6:55 PM CDT
Nautical Twilight 6:16 AM CDT 7:27 PM CDT
Astronomical Twilight 5:44 AM CDT 7:59 PM CDT
Moon 3:22 PM CDT (10/13) 1:23 AM CDT (10/13)
Length of Visible Light 12h 07m
Length of Day
11h 12m
Waxing Gibbous, 69% of the Moon is Illuminated
Oct 13
Waxing Gibbous
Oct 18
Full
Oct 26
Last Quarter
Nov 3
New
Nov 9
First Quarter

Hourly Weather History & Observations

Time (CDT) Temp. Windchill Dew Point Humidity Pressure Visibility Wind Dir Wind Speed Gust Speed Precip Events Conditions
12:15 AM 46.9 °F - 35.4 °F 64% 30.24 in 10.0 mi Calm Calm - N/A   Clear
12:35 AM 46.2 °F 45.0 °F 37.0 °F 70% 30.25 in 10.0 mi West 3.5 mph - N/A   Clear
12:55 AM 43.7 °F 41.1 °F 35.6 °F 73% 30.25 in 10.0 mi West 4.6 mph - N/A   Clear
1:15 AM 46.9 °F - 34.9 °F 63% 30.25 in 10.0 mi WNW 4.6 mph - N/A   Clear
1:35 AM 48.0 °F - 34.9 °F 60% 30.26 in 10.0 mi WNW 5.8 mph - N/A   Clear
1:55 AM 48.9 °F - 34.3 °F 57% 30.26 in 10.0 mi NW 5.8 mph - N/A   Clear
2:15 AM 50.2 °F - 33.4 °F 53% 30.27 in 10.0 mi WNW 6.9 mph - N/A   Clear
2:35 AM 50.0 °F - 33.1 °F 52% 30.28 in 10.0 mi WNW 4.6 mph - N/A   Clear
2:55 AM 49.1 °F - 33.1 °F 54% 30.28 in 10.0 mi WNW 4.6 mph - N/A   Clear
3:15 AM 48.7 °F - 32.9 °F 54% 30.29 in 10.0 mi NW 3.5 mph - N/A   Clear
3:35 AM 49.1 °F - 32.2 °F 52% 30.30 in 10.0 mi NW 6.9 mph - N/A   Clear
3:55 AM 47.5 °F - 32.4 °F 56% 30.31 in 10.0 mi NW 3.5 mph - N/A   Clear
4:15 AM 47.3 °F - 32.2 °F 56% 30.31 in 10.0 mi Calm Calm - N/A   Clear
4:35 AM 41.4 °F - 32.7 °F 71% 30.32 in 10.0 mi Calm Calm - N/A   Clear
4:55 AM 39.9 °F - 32.9 °F 76% 30.32 in 10.0 mi Calm Calm - N/A   Clear
5:15 AM 40.3 °F - 33.8 °F 78% 30.33 in 10.0 mi Calm Calm - N/A   Clear
5:35 AM 38.5 °F 36.1 °F 33.1 °F 81% 30.34 in 10.0 mi WNW 3.5 mph - N/A   Clear
5:55 AM 40.8 °F - 36.5 °F 85% 30.34 in 10.0 mi Calm Calm - N/A   Clear
6:15 AM 39.4 °F - 36.5 °F 89% 30.34 in 10.0 mi Calm Calm - N/A   Clear
6:35 AM 40.3 °F - 34.3 °F 79% 30.35 in 10.0 mi Calm Calm - N/A   Clear
6:55 AM 38.7 °F - 36.0 °F 90% 30.36 in 10.0 mi Calm Calm - N/A   Clear
7:15 AM 41.2 °F - 32.9 °F 72% 30.37 in 10.0 mi Calm Calm - N/A   Clear
7:35 AM 40.6 °F 38.6 °F 32.9 °F 74% 30.38 in 10.0 mi NW 3.5 mph - N/A   Clear
7:55 AM 41.2 °F 37.3 °F 34.0 °F 76% 30.38 in 10.0 mi NNW 5.8 mph - N/A   Clear
8:15 AM 43.3 °F 39.2 °F 34.9 °F 72% 30.39 in 10.0 mi NNW 6.9 mph - N/A   Clear
8:35 AM 45.9 °F 42.9 °F 34.7 °F 65% 30.40 in 10.0 mi NNW 5.8 mph - N/A   Clear
8:55 AM 48.6 °F - 34.5 °F 58% 30.41 in 10.0 mi Calm Calm - N/A   Clear
9:15 AM 50.0 °F - 34.0 °F 54% 30.42 in 10.0 mi Calm Calm - N/A   Clear
9:35 AM 52.5 °F - 34.5 °F 50% 30.43 in 10.0 mi Calm Calm - N/A   Clear
9:55 AM 55.0 °F - 35.6 °F 48% 30.43 in 10.0 mi North 3.5 mph - N/A   Clear
10:15 AM 57.9 °F - 34.0 °F 41% 30.43 in 10.0 mi Calm Calm - N/A   Clear
10:55 AM 61.5 °F - 29.7 °F 30% 30.43 in 10.0 mi Calm Calm - N/A   Clear
11:15 AM 62.8 °F - 27.9 °F 27% 30.43 in 10.0 mi NE 4.6 mph - N/A   Clear
11:35 AM 63.3 °F - 25.9 °F 24% 30.43 in 10.0 mi NW 3.5 mph - N/A   Clear
11:55 AM 64.4 °F - 25.2 °F 23% 30.43 in 10.0 mi NNW 8.1 mph - N/A   Clear
12:15 PM 64.4 °F - 25.2 °F 23% 30.42 in 10.0 mi NNW 4.6 mph - N/A   Clear
12:35 PM 64.9 °F - 25.7 °F 23% 30.41 in 10.0 mi NNW 5.8 mph - N/A   Clear
12:55 PM 64.6 °F - 25.3 °F 23% 30.40 in 10.0 mi NNW 5.8 mph - N/A   Clear
1:15 PM 65.1 °F - 25.0 °F 22% 30.40 in 10.0 mi Calm Calm - N/A   Clear
1:35 PM 66.4 °F - 24.3 °F 20% 30.39 in 10.0 mi WNW 4.6 mph - N/A   Clear
1:55 PM 66.6 °F - 24.1 °F 20% 30.38 in 10.0 mi North 6.9 mph - N/A   Clear
2:15 PM 66.9 °F - 23.0 °F 19% 30.38 in 10.0 mi North 6.9 mph - N/A   Clear
2:35 PM 67.1 °F - 21.7 °F 18% 30.38 in 10.0 mi NE 3.5 mph - N/A   Clear
2:55 PM 66.9 °F - 21.4 °F 18% 30.37 in 10.0 mi Calm Calm - N/A   Clear
3:15 PM 67.1 °F - 22.5 °F 18% 30.37 in 10.0 mi West 3.5 mph - N/A   Clear
3:35 PM 66.9 °F - 21.2 °F 18% 30.37 in 10.0 mi Calm Calm - N/A   Clear
3:55 PM 68.2 °F - 20.5 °F 16% 30.36 in 10.0 mi Calm Calm - N/A   Clear
4:15 PM 67.3 °F - 21.4 °F 17% 30.36 in 10.0 mi Calm Calm - N/A   Clear
4:35 PM 67.1 °F - 21.2 °F 17% 30.35 in 10.0 mi North 5.8 mph - N/A   Clear
4:55 PM 66.4 °F - 20.8 °F 18% 30.35 in 10.0 mi Calm Calm - N/A   Clear
5:15 PM 65.8 °F - 20.5 °F 18% 30.35 in 10.0 mi North 4.6 mph - N/A   Clear
5:35 PM 65.3 °F - 20.7 °F 18% 30.35 in 10.0 mi North 5.8 mph - N/A   Clear
5:55 PM 64.2 °F - 21.2 °F 19% 30.35 in 10.0 mi North 4.6 mph - N/A   Clear
6:15 PM 61.2 °F - 23.4 °F 24% 30.36 in 4.0 mi NNE 4.6 mph - N/A   Haze
6:35 PM 59.4 °F - 23.7 °F 25% 30.36 in 7.0 mi North 3.5 mph - N/A   Clear
6:55 PM 56.3 °F - 25.3 °F 30% 30.36 in 7.0 mi North 4.6 mph - N/A   Clear
7:15 PM 53.4 °F - 27.3 °F 37% 30.36 in 10.0 mi North 5.8 mph - N/A   Clear
7:35 PM 52.7 °F - 27.9 °F 38% 30.36 in 1.2 mi NNE 8.1 mph - N/A   Haze
7:55 PM 49.6 °F - 28.4 °F 44% 30.36 in 2.0 mi NE 6.9 mph - N/A   Haze
8:15 PM 52.7 °F - 27.0 °F 37% 30.37 in 1.8 mi NE 5.8 mph - N/A   Haze
8:35 PM 50.4 °F - 27.5 °F 41% 30.38 in 1.5 mi NE 6.9 mph - N/A   Haze
8:55 PM 51.3 °F - 27.0 °F 39% 30.39 in 1.8 mi NE 5.8 mph - N/A   Haze
9:15 PM 48.2 °F - 27.9 °F 45% 30.39 in 1.5 mi NE 4.6 mph - N/A   Haze
9:35 PM 47.8 °F - 27.9 °F 46% 30.39 in 1.5 mi NNE 4.6 mph - N/A   Haze
9:55 PM 46.4 °F 43.5 °F 28.4 °F 50% 30.39 in 2.0 mi NNE 5.8 mph - N/A   Haze
10:15 PM 45.1 °F 41.4 °F 28.9 °F 53% 30.38 in 1.8 mi NNE 6.9 mph - N/A   Haze
10:35 PM 44.6 °F 40.7 °F 29.3 °F 55% 30.38 in 1.5 mi NNE 6.9 mph - N/A   Haze
10:55 PM 43.5 °F 39.4 °F 29.8 °F 59% 30.38 in 1.0 mi NE 6.9 mph - N/A   Haze
11:15 PM 44.4 °F 41.2 °F 29.8 °F 57% 30.38 in 1.2 mi NE 5.8 mph - N/A   Haze
11:35 PM 43.9 °F 39.9 °F 29.8 °F 58% 30.38 in 1.0 mi NE 6.9 mph - N/A   Haze
11:55 PM 43.2 °F 39.7 °F 29.8 °F 59% 30.38 in 0.8 mi NE 5.8 mph - N/A   Haze